Impacts TAF Board
For situational awareness. Not to be used for flight planning purposes.
IDs:

KGEG - Spokane Intl, WA, US

Issued at 2322 UTC 05 Dec 2019
Updated at 0123 UTC 06 Dec 2019
Potential Impact None Slight Moderate High
Time0053Z 06/02Z 06/03Z 06/04Z 06/05Z 06/06Z 06/07Z 06/08Z 06/09Z 06/10Z 06/11Z 06/12Z 06/13Z 06/14Z>>
Type OBS PRVL PRVL PRVL PRVL PRVL PRVL PRVL PRVL PRVL PRVL PRVL PRVL PRVL
VIS 8 >6 >6 >6 2 2 2 2 2 2 2 0.5 0.5 0.5
CIG 23 40 40 40 40 40 40 40 40 40 40 3 3 3
Cover OVC OVC OVC OVC OVC OVC OVC OVC OVC OVC OVC OVC OVC OVC
FltCat MVFR VFR VFR VFR IFR IFR IFR IFR IFR IFR IFR LIFR LIFR LIFR
WX -- VCSH VCSH VCSH BR BR BR BR BR BR BR FG FG FG
WDir VRB 140 140 140 130 130 130 130 130 130 130 100 100 100
WSpd 0 4 4 4 4 4 4 4 4 4 4 4 4 4
WGst -- -- -- -- -- -- -- -- -- -- -- -- -- --
Raw TAF
KGEG 052322Z 0600/0624 VRB05KT P6SM VCSH FEW010 BKN020 OVC050
  FM060200 14004KT P6SM VCSH SCT025 OVC040
  FM060500 13004KT 2SM BR OVC040
  FM061200 10004KT 1/2SM FG OVC003
  FM061700 11005KT 3SM BR OVC011
  FM062100 11005KT P6SM SCT015 OVC040


Raw METAR
KGEG 060053Z 00000KT 8SM FEW011 BKN023 OVC050 04/03 A3010 RMK AO2 SLP206 T00440028
KGEG 052353Z 00000KT 10SM FEW010 BKN021 OVC050 06/03 A3010 RMK AO2 SLP206 60000 T00560028 10061 20039 51012
KGEG 052253Z 09003KT 10SM FEW010 BKN020 OVC050 06/02 A3009 RMK AO2 SLP202 T00560017

METAR Board
Radar Display
Forecast Discussion
For situational awareness. Not to be used for flight planning purposes.